Nearby METAR Reports

 

CYGK - Kingston Arpt (m, Ontario, Canada
Distance from station: SSW 54km
Updated: 22/09/2017 23:00
NOT Current
Clear
Clear
 Wind from NNW
Wind: NNW 6 km/h
Temperature: 18°C
Dew Point: 15°C
Humidity: 83%
Barometer: 1019 hPa
Clouds: Clear
Visibility: 24 km
2017/09/23 03:00 CYGK 230300Z 33003KT 15SM SKC 18/15 A3009 RMK LAST STFD OBS / NEXT 231000 UTC SLP189 DENSITY ALT 500FT
CXKE - Kemptville, Ontario, Canada
Distance from station: ENE 68km
Updated: 23/09/2017 03:00

 Wind from calm
Wind: Calm
Temperature: 14°C
Dew Point: 13°C
Humidity: 94%
2017/09/23 07:00 CXKE 230700Z AUTO 00000KT 14/13 RMK AO1 SLP173 T01400134 56007
 
KART - Watertown, New York, USA
Distance from station: SSE 81km
Updated: 23/09/2017 02:56
Mist, Clear
Mist, Clear
 Wind from ENE
Wind: ENE 6 km/h
Temperature: 11°C
Dew Point: 11°C
Humidity: 100%
Barometer: 1017.6 hPa
Summary: Mist
Clouds: Clear
Visibility: 8 km
2017/09/23 06:56 KART 230656Z AUTO 07003KT 5SM BR CLR 11/11 A3005 RMK AO2 SLP172 T01110111
KGTB - Fort Drum/Wheele, New York, USA
Distance from station: SE 85km
Updated: 23/09/2017 02:56
Clear
Clear
 Wind from SE
Wind: SE 9 km/h
Temperature: 14°C
Dew Point: 12°C
Humidity: 88%
Barometer: 1017.6 hPa
Clouds: Clear
Visibility: 16 km
2017/09/23 06:56 KGTB 230656Z AUTO 14005KT 10SM CLR 14/12 A3005 RMK AO2 SLP174 T01430123 $
 
CYOW - Ottawa Intl, Ontario, Canada
Distance from station: NE 90km
Updated: 23/09/2017 03:00
Clear
Clear
 Wind from SSW
Wind: SSW 6 km/h
Temperature: 16°C
Dew Point: 13°C
Humidity: 83%
Barometer: 1017.6 hPa
Clouds: Clear
Visibility: 24 km
2017/09/23 07:00 CYOW 230700Z 21003KT 15SM SKC 16/13 A3005 RMK SLP176 DENSITY ALT 500FT
CYTR - Trenton (can Mil, Ontario, Canada
Distance from station: SW 110km
Updated: 23/09/2017 03:00
Clear
Clear
 Wind from calm
Wind: Calm
Temperature: 15°C
Dew Point: 14°C
Humidity: 94%
Barometer: 1017.9 hPa
Clouds: Clear
Visibility: 24 km
2017/09/23 07:00 CYTR 230700Z 00000KT 15SM SKC 15/14 A3006 RMK SLP180
 
CWQP - Point Petre (mar, Ontario, Canada
Distance from station: SW 112km
Updated: 23/09/2017 03:00

 Wind from WNW
Wind: WNW 9 km/h
Temperature: 17°C
Dew Point: 17°C
Humidity: 100%
2017/09/23 07:00 CWQP 230700Z AUTO 29005KT 17/17 RMK AO1 SLP178 T01740166 55007
CYND - Gatineau Airport, Quebec, Canada
Distance from station: NNE 113km
Updated: 22/09/2017 21:00
NOT Current
Clear
Clear
 Wind from NW
Wind: NW 4 km/h
Temperature: 17°C
Dew Point: 15°C
Humidity: 88%
Barometer: 1018.6 hPa
Clouds: Clear
Visibility: 24 km
2017/09/23 01:00 CYND 230100Z 32002KT 15SM SKC 17/15 A3008 RMK LAST STFD OBS/NEXT 231100 UTC SLP188 DENSITY ALT 300FT
 
KMSS - Massena, New York, USA
Distance from station: ENE 123km
Updated: 23/09/2017 02:53
Clear
Clear
 Wind from calm
Wind: Calm
Temperature: 12°C
Dew Point: 12°C
Humidity: 100%
Barometer: 1017.6 hPa
Clouds: Clear
Visibility: 16 km
2017/09/23 06:53 KMSS 230653Z AUTO 00000KT 10SM CLR 12/12 A3005 RMK AO2 SLP176 T01220117
CWRK - Bancroft Autob, Ontario, Canada
Distance from station: WNW 126km
Updated: 23/09/2017 03:00

 Wind from calm
Wind: Calm
Temperature: 13°C
Dew Point: 13°C
Humidity: 100%
2017/09/23 07:00 CWRK 230700Z AUTO 00000KT 13/13 RMK AO1 SLP178 T01330132 56010
 
CXHF - High Falls Cs (a, Quebec, Canada
Distance from station: NNE 141km
Updated: 23/09/2017 03:00

 
Temperature: 15°C
Dew Point: 14°C
Humidity: 94%
2017/09/23 07:00 CXHF 230700Z AUTO 15/14 RMK AO1 T01450141
KFZY - Fulton, New York, USA
Distance from station: S 147km
Updated: 23/09/2017 03:13
Mist, Overcast
Mist, Overcast
 Wind from calm
Wind: Calm
Temperature: 14°C
Dew Point: 13°C
Humidity: 94%
Barometer: 1017.6 hPa
Summary: Mist
Clouds: Overcast
Visibility: 2 km
Cloud details: Overcast 61 m
2017/09/23 07:13 KFZY 230713Z AUTO 00000KT 1SM BR VV002 14/13 A3005 RMK AO2 T01440133
 
CYWA - Petawawa, Ontario, Canada
Distance from station: NNW 160km
Updated: 23/09/2017 03:00
Clear
Clear
 Wind from SE
Wind: SE 4 km/h
Temperature: 18°C
Dew Point: 16°C
Humidity: 88%
Barometer: 1016.6 hPa
Clouds: Clear
Visibility: 14 km
2017/09/23 07:00 CYWA 230700Z AUTO 13002KT 9SM CLR 18/16 A3002 RMK SLP165
CWNC - Cobourg (mars), Ontario, Canada
Distance from station: WSW 164km
Updated: 23/09/2017 03:00

 Wind from NNW
Wind: NNW 6 km/h
Temperature: 18°C
Dew Point: 9°C
Humidity: 56%
2017/09/23 07:00 CWNC 230700Z AUTO 34003KT 18/09 RMK AO1 SLP170 T01750094 57010
 
CYPQ - Peterborough Arp, Ontario, Canada
Distance from station: WSW 167km
Updated: 23/09/2017 03:00
Clear
Clear
 Wind from W
Wind: W 6 km/h
Temperature: 13°C
Dew Point: 13°C
Humidity: 100%
Barometer: 1017.9 hPa
Clouds: Clear
Visibility: 14 km
2017/09/23 07:00 CYPQ 230700Z AUTO 28003KT 9SM CLR 13/13 A3006 RMK SLP179
CWBZ - St Anicet, Quebec, Canada
Distance from station: ENE 172km
Updated: 23/09/2017 03:00

 Wind from calm
Wind: Calm
Temperature: 11°C
Dew Point: 11°C
Humidity: 100%
2017/09/23 07:00 CWBZ 230700Z AUTO 00000KT 11/11 RMK AO1 SLP166 T01140111 58019
 
KSLK - Saranac Lake, New York, USA
Distance from station: E 174km
Updated: 23/09/2017 02:51
Clear
Clear
 Wind from calm
Wind: Calm
Temperature: 6°C
Dew Point: 5°C
Humidity: 93%
Barometer: 1019 hPa
Clouds: Clear
Visibility: 16 km
2017/09/23 06:51 KSLK 230651Z AUTO 00000KT 10SM CLR 06/05 A3009 RMK AO2 SLP188 T00610050
KSYR - Syracuse, New York, USA
Distance from station: S 174km
Updated: 23/09/2017 02:54
Partly cloudy
Partly cloudy
 Wind from calm
Wind: Calm
Temperature: 15°C
Dew Point: 14°C
Humidity: 94%
Barometer: 1017.9 hPa
Clouds: Partly cloudy
Visibility: 16 km
Cloud details: Partly cloudy 183 m
2017/09/23 06:54 KSYR 230654Z 00000KT 10SM SCT006 15/14 A3006 RMK AO2 SLP174 T01500144
 
CTNK - Algonquin Park, Ontario, Canada
Distance from station: WNW 177km
Updated: 23/09/2017 03:00

 Wind from E
Wind: E 2 km/h
Temperature: 16°C
Dew Point: 14°C
Humidity: 88%
2017/09/23 07:00 CTNK 230700Z AUTO 09001KT 16/14 RMK AO1 SLP177 T01570143 55008
KRME - Rome/Griffiss Af, New York, USA
Distance from station: SSE 179km
Updated: 23/09/2017 02:53
Clear
Clear
 Wind from calm
Wind: Calm
Temperature: 13°C
Dew Point: 12°C
Humidity: 94%
Barometer: 1019 hPa
Clouds: Clear
Visibility: 16 km
2017/09/23 06:53 KRME 230653Z AUTO 00000KT 10SM CLR 13/12 A3009 RMK AO2 SLP186 T01280117